sensor_id;sensor_type;location;lat;lon;timestamp;P1;durP1;ratioP1;P2;durP2;ratioP2
11604;SDS011;5858;43.076;25.626;2023-07-16T00:01:58;6.18;;;4.43;;
11604;SDS011;5858;43.076;25.626;2023-07-16T00:04:25;5.30;;;4.63;;
11604;SDS011;5858;43.076;25.626;2023-07-16T00:06:52;5.07;;;4.50;;
11604;SDS011;5858;43.076;25.626;2023-07-16T00:09:19;5.20;;;4.70;;
11604;SDS011;5858;43.076;25.626;2023-07-16T00:11:47;5.40;;;4.90;;
11604;SDS011;5858;43.076;25.626;2023-07-16T00:14:14;5.55;;;4.72;;
11604;SDS011;5858;43.076;25.626;2023-07-16T00:16:41;5.57;;;5.00;;
11604;SDS011;5858;43.076;25.626;2023-07-16T00:19:09;5.43;;;4.93;;
11604;SDS011;5858;43.076;25.626;2023-07-16T00:21:37;6.68;;;4.78;;
11604;SDS011;5858;43.076;25.626;2023-07-16T00:24:05;5.65;;;4.85;;
11604;SDS011;5858;43.076;25.626;2023-07-16T00:26:32;6.97;;;5.15;;
11604;SDS011;5858;43.076;25.626;2023-07-16T00:29:01;6.15;;;4.95;;
11604;SDS011;5858;43.076;25.626;2023-07-16T00:31:28;5.80;;;5.05;;
11604;SDS011;5858;43.076;25.626;2023-07-16T00:33:55;9.50;;;5.15;;
11604;SDS011;5858;43.076;25.626;2023-07-16T00:36:24;7.35;;;4.90;;
11604;SDS011;5858;43.076;25.626;2023-07-16T00:38:51;6.72;;;4.82;;
11604;SDS011;5858;43.076;25.626;2023-07-16T00:41:18;6.75;;;5.10;;
11604;SDS011;5858;43.076;25.626;2023-07-16T00:43:45;7.53;;;4.97;;
11604;SDS011;5858;43.076;25.626;2023-07-16T00:46:14;6.53;;;5.10;;
11604;SDS011;5858;43.076;25.626;2023-07-16T00:48:43;5.45;;;4.95;;
11604;SDS011;5858;43.076;25.626;2023-07-16T00:51:10;7.18;;;4.43;;
11604;SDS011;5858;43.076;25.626;2023-07-16T00:53:38;5.60;;;5.00;;
11604;SDS011;5858;43.076;25.626;2023-07-16T00:56:06;8.15;;;5.10;;
11604;SDS011;5858;43.076;25.626;2023-07-16T00:58:34;5.63;;;4.82;;
11604;SDS011;5858;43.076;25.626;2023-07-16T01:01:01;8.35;;;5.72;;
11604;SDS011;5858;43.076;25.626;2023-07-16T01:03:30;5.53;;;5.03;;
11604;SDS011;5858;43.076;25.626;2023-07-16T01:05:58;5.68;;;5.18;;
11604;SDS011;5858;43.076;25.626;2023-07-16T01:08:32;6.65;;;5.13;;
11604;SDS011;5858;43.076;25.626;2023-07-16T01:11:02;6.15;;;5.32;;
11604;SDS011;5858;43.076;25.626;2023-07-16T01:13:30;7.50;;;5.00;;
11604;SDS011;5858;43.076;25.626;2023-07-16T01:16:00;6.07;;;5.15;;
11604;SDS011;5858;43.076;25.626;2023-07-16T01:18:30;5.70;;;5.18;;
11604;SDS011;5858;43.076;25.626;2023-07-16T01:20:57;5.03;;;4.53;;
11604;SDS011;5858;43.076;25.626;2023-07-16T01:23:38;9.63;;;4.93;;
11604;SDS011;5858;43.076;25.626;2023-07-16T01:26:26;5.40;;;4.70;;
11604;SDS011;5858;43.076;25.626;2023-07-16T01:31:58;6.85;;;4.78;;
11604;SDS011;5858;43.076;25.626;2023-07-16T01:34:27;4.90;;;4.50;;
11604;SDS011;5858;43.076;25.626;2023-07-16T01:36:56;5.65;;;4.88;;
11604;SDS011;5858;43.076;25.626;2023-07-16T01:39:23;7.68;;;5.25;;
11604;SDS011;5858;43.076;25.626;2023-07-16T01:41:51;5.50;;;4.50;;
11604;SDS011;5858;43.076;25.626;2023-07-16T01:44:18;5.65;;;4.28;;
11604;SDS011;5858;43.076;25.626;2023-07-16T01:46:49;7.07;;;4.60;;
11604;SDS011;5858;43.076;25.626;2023-07-16T01:49:31;6.65;;;4.50;;
11604;SDS011;5858;43.076;25.626;2023-07-16T01:52:02;7.32;;;4.57;;
11604;SDS011;5858;43.076;25.626;2023-07-16T01:54:30;8.10;;;5.10;;
11604;SDS011;5858;43.076;25.626;2023-07-16T01:56:57;8.48;;;4.70;;
11604;SDS011;5858;43.076;25.626;2023-07-16T01:59:24;6.25;;;4.47;;
11604;SDS011;5858;43.076;25.626;2023-07-16T02:01:52;7.93;;;4.60;;
11604;SDS011;5858;43.076;25.626;2023-07-16T02:04:21;8.02;;;5.30;;
11604;SDS011;5858;43.076;25.626;2023-07-16T02:06:48;6.03;;;4.68;;
11604;SDS011;5858;43.076;25.626;2023-07-16T02:09:15;7.75;;;4.90;;
11604;SDS011;5858;43.076;25.626;2023-07-16T02:11:42;7.57;;;5.00;;
11604;SDS011;5858;43.076;25.626;2023-07-16T02:14:08;5.50;;;5.00;;
11604;SDS011;5858;43.076;25.626;2023-07-16T02:16:36;8.27;;;5.22;;
11604;SDS011;5858;43.076;25.626;2023-07-16T02:19:11;6.72;;;5.00;;
11604;SDS011;5858;43.076;25.626;2023-07-16T02:21:43;8.82;;;4.70;;
11604;SDS011;5858;43.076;25.626;2023-07-16T02:24:29;5.82;;;5.00;;
11604;SDS011;5858;43.076;25.626;2023-07-16T02:27:01;6.47;;;5.15;;
11604;SDS011;5858;43.076;25.626;2023-07-16T02:29:29;4.95;;;4.45;;
11604;SDS011;5858;43.076;25.626;2023-07-16T02:31:58;6.90;;;4.70;;
11604;SDS011;5858;43.076;25.626;2023-07-16T02:34:27;6.60;;;4.70;;
11604;SDS011;5858;43.076;25.626;2023-07-16T02:36:59;5.97;;;4.40;;
11604;SDS011;5858;43.076;25.626;2023-07-16T02:39:26;5.63;;;4.43;;
11604;SDS011;5858;43.076;25.626;2023-07-16T02:42:03;7.00;;;4.88;;
11604;SDS011;5858;43.076;25.626;2023-07-16T02:44:50;8.23;;;4.82;;
11604;SDS011;5858;43.076;25.626;2023-07-16T02:47:49;7.10;;;4.85;;
11604;SDS011;5858;43.076;25.626;2023-07-16T02:50:44;5.45;;;4.43;;
11604;SDS011;5858;43.076;25.626;2023-07-16T02:54:51;5.20;;;4.70;;
11604;SDS011;5858;43.076;25.626;2023-07-16T02:57:01;5.85;;;5.10;;
11604;SDS011;5858;43.076;25.626;2023-07-16T02:59:54;5.57;;;4.80;;
11604;SDS011;5858;43.076;25.626;2023-07-16T03:02:36;9.25;;;5.05;;
11604;SDS011;5858;43.076;25.626;2023-07-16T03:05:09;6.28;;;4.68;;
11604;SDS011;5858;43.076;25.626;2023-07-16T03:07:38;6.25;;;4.43;;
11604;SDS011;5858;43.076;25.626;2023-07-16T03:10:09;7.28;;;4.50;;
11604;SDS011;5858;43.076;25.626;2023-07-16T03:12:40;6.15;;;4.43;;
11604;SDS011;5858;43.076;25.626;2023-07-16T03:15:17;5.22;;;4.53;;
11604;SDS011;5858;43.076;25.626;2023-07-16T03:17:44;6.32;;;4.90;;
11604;SDS011;5858;43.076;25.626;2023-07-16T03:20:12;5.57;;;4.47;;
11604;SDS011;5858;43.076;25.626;2023-07-16T03:22:41;5.45;;;4.95;;
11604;SDS011;5858;43.076;25.626;2023-07-16T03:25:10;6.15;;;4.93;;
11604;SDS011;5858;43.076;25.626;2023-07-16T03:27:41;7.35;;;4.45;;
11604;SDS011;5858;43.076;25.626;2023-07-16T03:30:18;5.35;;;4.85;;
11604;SDS011;5858;43.076;25.626;2023-07-16T03:33:14;6.35;;;4.03;;
11604;SDS011;5858;43.076;25.626;2023-07-16T03:36:29;4.78;;;3.88;;
11604;SDS011;5858;43.076;25.626;2023-07-16T03:43:08;4.55;;;4.15;;
11604;SDS011;5858;43.076;25.626;2023-07-16T03:56:14;5.53;;;4.35;;
11604;SDS011;5858;43.076;25.626;2023-07-16T04:05:30;6.10;;;4.13;;
11604;SDS011;5858;43.076;25.626;2023-07-16T04:08:13;4.85;;;3.85;;
11604;SDS011;5858;43.076;25.626;2023-07-16T04:11:35;8.02;;;4.25;;
11604;SDS011;5858;43.076;25.626;2023-07-16T04:14:03;5.13;;;4.00;;
11604;SDS011;5858;43.076;25.626;2023-07-16T04:16:44;4.20;;;3.80;;
11604;SDS011;5858;43.076;25.626;2023-07-16T04:19:12;4.03;;;3.10;;
11604;SDS011;5858;43.076;25.626;2023-07-16T04:21:49;5.20;;;3.92;;
11604;SDS011;5858;43.076;25.626;2023-07-16T04:28:31;5.18;;;3.63;;
11604;SDS011;5858;43.076;25.626;2023-07-16T04:31:14;3.65;;;3.35;;
11604;SDS011;5858;43.076;25.626;2023-07-16T04:34:08;3.67;;;3.38;;
11604;SDS011;5858;43.076;25.626;2023-07-16T04:37:00;4.18;;;3.78;;
11604;SDS011;5858;43.076;25.626;2023-07-16T04:39:52;3.95;;;3.38;;
11604;SDS011;5858;43.076;25.626;2023-07-16T04:42:34;4.15;;;3.28;;
11604;SDS011;5858;43.076;25.626;2023-07-16T04:45:08;8.63;;;3.60;;
11604;SDS011;5858;43.076;25.626;2023-07-16T04:47:59;5.55;;;3.88;;
11604;SDS011;5858;43.076;25.626;2023-07-16T04:58:15;4.10;;;3.38;;
11604;SDS011;5858;43.076;25.626;2023-07-16T05:00:51;5.63;;;3.78;;
11604;SDS011;5858;43.076;25.626;2023-07-16T05:03:22;7.75;;;4.15;;
11604;SDS011;5858;43.076;25.626;2023-07-16T05:06:04;5.15;;;3.83;;
11604;SDS011;5858;43.076;25.626;2023-07-16T05:08:39;5.93;;;3.60;;
11604;SDS011;5858;43.076;25.626;2023-07-16T05:11:07;4.80;;;3.70;;
11604;SDS011;5858;43.076;25.626;2023-07-16T05:13:35;4.38;;;3.50;;
11604;SDS011;5858;43.076;25.626;2023-07-16T05:16:07;3.53;;;3.20;;
11604;SDS011;5858;43.076;25.626;2023-07-16T05:18:40;6.10;;;3.65;;
11604;SDS011;5858;43.076;25.626;2023-07-16T05:21:40;6.05;;;3.88;;
11604;SDS011;5858;43.076;25.626;2023-07-16T05:24:18;4.30;;;3.88;;
11604;SDS011;5858;43.076;25.626;2023-07-16T05:26:56;8.82;;;4.05;;
11604;SDS011;5858;43.076;25.626;2023-07-16T05:29:48;6.93;;;4.22;;
11604;SDS011;5858;43.076;25.626;2023-07-16T05:32:19;4.45;;;3.70;;
11604;SDS011;5858;43.076;25.626;2023-07-16T05:34:46;4.90;;;4.00;;
11604;SDS011;5858;43.076;25.626;2023-07-16T05:37:13;5.07;;;3.88;;
11604;SDS011;5858;43.076;25.626;2023-07-16T05:39:45;4.28;;;3.38;;
11604;SDS011;5858;43.076;25.626;2023-07-16T05:42:12;4.18;;;3.40;;
11604;SDS011;5858;43.076;25.626;2023-07-16T05:44:39;6.50;;;3.30;;
11604;SDS011;5858;43.076;25.626;2023-07-16T05:47:08;4.40;;;3.30;;
11604;SDS011;5858;43.076;25.626;2023-07-16T05:49:35;6.53;;;3.17;;
11604;SDS011;5858;43.076;25.626;2023-07-16T05:52:04;4.75;;;3.50;;
11604;SDS011;5858;43.076;25.626;2023-07-16T05:54:32;4.00;;;3.60;;
11604;SDS011;5858;43.076;25.626;2023-07-16T05:56:59;4.15;;;3.45;;
11604;SDS011;5858;43.076;25.626;2023-07-16T05:59:28;5.25;;;3.58;;
11604;SDS011;5858;43.076;25.626;2023-07-16T06:02:03;3.72;;;3.38;;
11604;SDS011;5858;43.076;25.626;2023-07-16T06:04:49;3.95;;;3.47;;
11604;SDS011;5858;43.076;25.626;2023-07-16T06:07:51;6.30;;;3.75;;
11604;SDS011;5858;43.076;25.626;2023-07-16T06:10:29;4.13;;;3.28;;
11604;SDS011;5858;43.076;25.626;2023-07-16T06:13:14;3.83;;;3.53;;
11604;SDS011;5858;43.076;25.626;2023-07-16T06:15:41;4.00;;;3.55;;
11604;SDS011;5858;43.076;25.626;2023-07-16T06:18:08;3.63;;;3.28;;
11604;SDS011;5858;43.076;25.626;2023-07-16T06:20:37;3.65;;;3.35;;
11604;SDS011;5858;43.076;25.626;2023-07-16T06:23:04;3.78;;;3.33;;
11604;SDS011;5858;43.076;25.626;2023-07-16T06:25:31;4.45;;;3.60;;
11604;SDS011;5858;43.076;25.626;2023-07-16T06:28:01;5.93;;;3.58;;
11604;SDS011;5858;43.076;25.626;2023-07-16T06:30:43;4.22;;;3.30;;
11604;SDS011;5858;43.076;25.626;2023-07-16T06:33:12;4.80;;;3.20;;
11604;SDS011;5858;43.076;25.626;2023-07-16T06:35:43;5.32;;;3.50;;
11604;SDS011;5858;43.076;25.626;2023-07-16T06:38:27;4.60;;;3.40;;
11604;SDS011;5858;43.076;25.626;2023-07-16T06:40:55;7.55;;;3.42;;
11604;SDS011;5858;43.076;25.626;2023-07-16T06:43:22;4.90;;;3.72;;
11604;SDS011;5858;43.076;25.626;2023-07-16T06:45:53;4.00;;;3.60;;
11604;SDS011;5858;43.076;25.626;2023-07-16T06:48:41;3.53;;;3.00;;
11604;SDS011;5858;43.076;25.626;2023-07-16T06:51:09;6.20;;;3.83;;
11604;SDS011;5858;43.076;25.626;2023-07-16T06:53:36;6.18;;;3.55;;
11604;SDS011;5858;43.076;25.626;2023-07-16T06:56:04;4.07;;;3.67;;
11604;SDS011;5858;43.076;25.626;2023-07-16T06:58:31;5.15;;;3.80;;
11604;SDS011;5858;43.076;25.626;2023-07-16T07:00:58;5.05;;;3.80;;
11604;SDS011;5858;43.076;25.626;2023-07-16T07:03:28;4.22;;;3.72;;
11604;SDS011;5858;43.076;25.626;2023-07-16T07:05:55;5.60;;;3.65;;
11604;SDS011;5858;43.076;25.626;2023-07-16T07:08:29;4.30;;;3.90;;
11604;SDS011;5858;43.076;25.626;2023-07-16T07:10:56;4.57;;;3.80;;
11604;SDS011;5858;43.076;25.626;2023-07-16T07:13:23;6.30;;;3.38;;
11604;SDS011;5858;43.076;25.626;2023-07-16T07:15:50;3.88;;;3.58;;
11604;SDS011;5858;43.076;25.626;2023-07-16T07:18:17;4.05;;;3.63;;
11604;SDS011;5858;43.076;25.626;2023-07-16T07:20:44;4.40;;;3.60;;
11604;SDS011;5858;43.076;25.626;2023-07-16T07:23:12;6.45;;;4.13;;
11604;SDS011;5858;43.076;25.626;2023-07-16T07:25:41;3.80;;;3.50;;
11604;SDS011;5858;43.076;25.626;2023-07-16T07:28:08;5.57;;;3.80;;
11604;SDS011;5858;43.076;25.626;2023-07-16T07:30:34;4.80;;;4.13;;
11604;SDS011;5858;43.076;25.626;2023-07-16T07:33:03;5.43;;;4.00;;
11604;SDS011;5858;43.076;25.626;2023-07-16T07:35:38;7.57;;;3.72;;
11604;SDS011;5858;43.076;25.626;2023-07-16T07:38:08;3.80;;;3.50;;
11604;SDS011;5858;43.076;25.626;2023-07-16T07:40:40;4.93;;;3.63;;
11604;SDS011;5858;43.076;25.626;2023-07-16T07:43:09;8.02;;;3.75;;
11604;SDS011;5858;43.076;25.626;2023-07-16T07:45:36;4.15;;;3.72;;
11604;SDS011;5858;43.076;25.626;2023-07-16T07:48:03;5.47;;;3.35;;
11604;SDS011;5858;43.076;25.626;2023-07-16T07:50:36;5.32;;;3.17;;
11604;SDS011;5858;43.076;25.626;2023-07-16T07:53:03;3.65;;;3.33;;
11604;SDS011;5858;43.076;25.626;2023-07-16T07:55:33;4.47;;;3.78;;
11604;SDS011;5858;43.076;25.626;2023-07-16T07:58:03;6.05;;;4.20;;
11604;SDS011;5858;43.076;25.626;2023-07-16T08:00:30;4.90;;;3.75;;
11604;SDS011;5858;43.076;25.626;2023-07-16T08:02:57;5.07;;;3.70;;
11604;SDS011;5858;43.076;25.626;2023-07-16T08:05:24;4.25;;;3.85;;
11604;SDS011;5858;43.076;25.626;2023-07-16T08:07:51;4.65;;;3.70;;
11604;SDS011;5858;43.076;25.626;2023-07-16T08:10:21;4.25;;;3.58;;
11604;SDS011;5858;43.076;25.626;2023-07-16T08:12:48;5.93;;;3.65;;
11604;SDS011;5858;43.076;25.626;2023-07-16T08:15:17;4.32;;;3.92;;
11604;SDS011;5858;43.076;25.626;2023-07-16T08:17:46;4.22;;;3.85;;
11604;SDS011;5858;43.076;25.626;2023-07-16T08:20:17;4.05;;;3.63;;
11604;SDS011;5858;43.076;25.626;2023-07-16T08:22:45;6.45;;;4.45;;
11604;SDS011;5858;43.076;25.626;2023-07-16T08:25:14;4.72;;;4.05;;
11604;SDS011;5858;43.076;25.626;2023-07-16T08:27:58;4.70;;;4.20;;
11604;SDS011;5858;43.076;25.626;2023-07-16T08:31:14;5.45;;;4.10;;
11604;SDS011;5858;43.076;25.626;2023-07-16T08:36:46;4.45;;;3.83;;
11604;SDS011;5858;43.076;25.626;2023-07-16T08:43:54;8.45;;;4.10;;
11604;SDS011;5858;43.076;25.626;2023-07-16T08:49:35;4.80;;;3.90;;
11604;SDS011;5858;43.076;25.626;2023-07-16T08:52:09;4.95;;;4.15;;
11604;SDS011;5858;43.076;25.626;2023-07-16T08:54:42;6.80;;;4.03;;
11604;SDS011;5858;43.076;25.626;2023-07-16T08:57:12;7.55;;;4.57;;
11604;SDS011;5858;43.076;25.626;2023-07-16T08:59:40;8.35;;;4.30;;
11604;SDS011;5858;43.076;25.626;2023-07-16T09:02:25;6.15;;;4.53;;
11604;SDS011;5858;43.076;25.626;2023-07-16T09:05:10;4.63;;;4.20;;
11604;SDS011;5858;43.076;25.626;2023-07-16T09:07:38;5.53;;;3.78;;
11604;SDS011;5858;43.076;25.626;2023-07-16T09:10:05;4.38;;;3.97;;
11604;SDS011;5858;43.076;25.626;2023-07-16T09:12:33;7.05;;;4.35;;
11604;SDS011;5858;43.076;25.626;2023-07-16T09:15:04;8.02;;;3.92;;
11604;SDS011;5858;43.076;25.626;2023-07-16T09:18:00;4.60;;;4.07;;
11604;SDS011;5858;43.076;25.626;2023-07-16T09:28:12;10.90;;;4.35;;
11604;SDS011;5858;43.076;25.626;2023-07-16T09:30:42;8.25;;;3.83;;
11604;SDS011;5858;43.076;25.626;2023-07-16T09:33:13;5.82;;;4.05;;
11604;SDS011;5858;43.076;25.626;2023-07-16T09:35:41;5.28;;;4.10;;
11604;SDS011;5858;43.076;25.626;2023-07-16T09:38:51;11.07;;;4.22;;
11604;SDS011;5858;43.076;25.626;2023-07-16T09:41:36;4.72;;;4.13;;
11604;SDS011;5858;43.076;25.626;2023-07-16T09:44:13;4.57;;;4.05;;
11604;SDS011;5858;43.076;25.626;2023-07-16T09:46:46;4.78;;;4.32;;
11604;SDS011;5858;43.076;25.626;2023-07-16T09:49:26;4.47;;;4.07;;
11604;SDS011;5858;43.076;25.626;2023-07-16T09:55:19;6.95;;;4.90;;
11604;SDS011;5858;43.076;25.626;2023-07-16T09:57:52;5.57;;;3.95;;
11604;SDS011;5858;43.076;25.626;2023-07-16T10:06:52;7.25;;;4.82;;
11604;SDS011;5858;43.076;25.626;2023-07-16T10:09:35;6.03;;;4.38;;
11604;SDS011;5858;43.076;25.626;2023-07-16T10:12:42;5.93;;;4.22;;
11604;SDS011;5858;43.076;25.626;2023-07-16T10:21:50;6.85;;;4.68;;
11604;SDS011;5858;43.076;25.626;2023-07-16T10:24:17;8.82;;;4.32;;
11604;SDS011;5858;43.076;25.626;2023-07-16T10:26:51;5.03;;;3.88;;
11604;SDS011;5858;43.076;25.626;2023-07-16T10:29:21;4.65;;;4.03;;
11604;SDS011;5858;43.076;25.626;2023-07-16T10:32:02;6.68;;;4.03;;
11604;SDS011;5858;43.076;25.626;2023-07-16T10:44:57;4.43;;;4.03;;
11604;SDS011;5858;43.076;25.626;2023-07-16T10:47:31;7.55;;;4.15;;
11604;SDS011;5858;43.076;25.626;2023-07-16T10:50:05;5.28;;;4.25;;
11604;SDS011;5858;43.076;25.626;2023-07-16T10:52:39;4.72;;;4.20;;
11604;SDS011;5858;43.076;25.626;2023-07-16T10:55:06;4.43;;;3.95;;
11604;SDS011;5858;43.076;25.626;2023-07-16T10:57:33;7.25;;;4.53;;
11604;SDS011;5858;43.076;25.626;2023-07-16T11:00:01;6.45;;;4.32;;
11604;SDS011;5858;43.076;25.626;2023-07-16T11:02:31;5.55;;;4.10;;
11604;SDS011;5858;43.076;25.626;2023-07-16T11:05:12;4.82;;;4.40;;
11604;SDS011;5858;43.076;25.626;2023-07-16T11:07:49;6.40;;;4.10;;
11604;SDS011;5858;43.076;25.626;2023-07-16T11:10:24;6.20;;;4.28;;
11604;SDS011;5858;43.076;25.626;2023-07-16T11:12:56;4.78;;;4.20;;
11604;SDS011;5858;43.076;25.626;2023-07-16T11:15:30;6.72;;;4.95;;
11604;SDS011;5858;43.076;25.626;2023-07-16T11:18:02;5.25;;;4.15;;
11604;SDS011;5858;43.076;25.626;2023-07-16T11:20:53;6.68;;;4.38;;
11604;SDS011;5858;43.076;25.626;2023-07-16T11:26:20;4.80;;;4.30;;
11604;SDS011;5858;43.076;25.626;2023-07-16T11:28:54;5.38;;;4.88;;
11604;SDS011;5858;43.076;25.626;2023-07-16T11:32:01;5.95;;;4.13;;
11604;SDS011;5858;43.076;25.626;2023-07-16T11:34:37;5.13;;;4.45;;
11604;SDS011;5858;43.076;25.626;2023-07-16T11:37:08;6.82;;;5.10;;
11604;SDS011;5858;43.076;25.626;2023-07-16T11:39:36;5.35;;;4.20;;
11604;SDS011;5858;43.076;25.626;2023-07-16T11:42:27;7.43;;;4.63;;
11604;SDS011;5858;43.076;25.626;2023-07-16T11:45:16;6.10;;;4.28;;
11604;SDS011;5858;43.076;25.626;2023-07-16T11:47:57;7.03;;;4.53;;
11604;SDS011;5858;43.076;25.626;2023-07-16T11:53:24;7.43;;;4.75;;
11604;SDS011;5858;43.076;25.626;2023-07-16T11:55:52;6.00;;;4.35;;
11604;SDS011;5858;43.076;25.626;2023-07-16T11:58:21;6.35;;;4.60;;
11604;SDS011;5858;43.076;25.626;2023-07-16T12:00:48;7.32;;;4.13;;
11604;SDS011;5858;43.076;25.626;2023-07-16T12:03:16;6.40;;;4.65;;
11604;SDS011;5858;43.076;25.626;2023-07-16T12:05:53;6.85;;;4.35;;
11604;SDS011;5858;43.076;25.626;2023-07-16T12:08:25;6.13;;;4.65;;
11604;SDS011;5858;43.076;25.626;2023-07-16T12:11:06;21.45;;;5.30;;
11604;SDS011;5858;43.076;25.626;2023-07-16T12:13:42;7.85;;;5.10;;
11604;SDS011;5858;43.076;25.626;2023-07-16T12:16:11;5.38;;;4.32;;
11604;SDS011;5858;43.076;25.626;2023-07-16T12:18:43;5.70;;;4.97;;
11604;SDS011;5858;43.076;25.626;2023-07-16T12:21:15;6.25;;;5.13;;
11604;SDS011;5858;43.076;25.626;2023-07-16T12:23:42;5.65;;;4.50;;
11604;SDS011;5858;43.076;25.626;2023-07-16T12:26:11;6.05;;;4.65;;
11604;SDS011;5858;43.076;25.626;2023-07-16T12:28:39;6.13;;;4.65;;
11604;SDS011;5858;43.076;25.626;2023-07-16T12:31:08;6.05;;;4.78;;
11604;SDS011;5858;43.076;25.626;2023-07-16T12:33:35;6.20;;;4.80;;
11604;SDS011;5858;43.076;25.626;2023-07-16T12:36:04;5.72;;;4.75;;
11604;SDS011;5858;43.076;25.626;2023-07-16T12:38:36;5.97;;;4.97;;
11604;SDS011;5858;43.076;25.626;2023-07-16T12:41:02;5.80;;;4.65;;
11604;SDS011;5858;43.076;25.626;2023-07-16T12:43:33;5.45;;;4.95;;
11604;SDS011;5858;43.076;25.626;2023-07-16T12:46:03;4.80;;;4.40;;
11604;SDS011;5858;43.076;25.626;2023-07-16T12:48:33;5.50;;;4.82;;
11604;SDS011;5858;43.076;25.626;2023-07-16T12:51:00;7.18;;;4.90;;
11604;SDS011;5858;43.076;25.626;2023-07-16T12:53:27;4.72;;;4.32;;
11604;SDS011;5858;43.076;25.626;2023-07-16T12:55:58;4.90;;;4.50;;
11604;SDS011;5858;43.076;25.626;2023-07-16T12:58:27;5.90;;;4.78;;
11604;SDS011;5858;43.076;25.626;2023-07-16T13:00:56;5.15;;;4.57;;
11604;SDS011;5858;43.076;25.626;2023-07-16T13:03:23;6.55;;;4.75;;
11604;SDS011;5858;43.076;25.626;2023-07-16T13:05:50;5.43;;;4.72;;
11604;SDS011;5858;43.076;25.626;2023-07-16T13:08:17;5.60;;;5.03;;
11604;SDS011;5858;43.076;25.626;2023-07-16T13:10:45;4.95;;;4.55;;
11604;SDS011;5858;43.076;25.626;2023-07-16T13:13:16;5.53;;;4.63;;
11604;SDS011;5858;43.076;25.626;2023-07-16T13:15:46;4.85;;;4.32;;
11604;SDS011;5858;43.076;25.626;2023-07-16T13:18:14;5.97;;;5.03;;
11604;SDS011;5858;43.076;25.626;2023-07-16T13:20:43;5.05;;;4.47;;
11604;SDS011;5858;43.076;25.626;2023-07-16T13:23:17;6.80;;;4.90;;
11604;SDS011;5858;43.076;25.626;2023-07-16T13:29:13;5.30;;;4.60;;
11604;SDS011;5858;43.076;25.626;2023-07-16T13:31:45;5.55;;;5.00;;
11604;SDS011;5858;43.076;25.626;2023-07-16T13:34:18;6.75;;;5.15;;
11604;SDS011;5858;43.076;25.626;2023-07-16T13:36:50;6.45;;;5.00;;
11604;SDS011;5858;43.076;25.626;2023-07-16T13:39:19;5.60;;;5.10;;
11604;SDS011;5858;43.076;25.626;2023-07-16T13:41:47;7.90;;;5.10;;
11604;SDS011;5858;43.076;25.626;2023-07-16T13:44:18;6.55;;;5.03;;
11604;SDS011;5858;43.076;25.626;2023-07-16T13:46:46;6.95;;;5.10;;
11604;SDS011;5858;43.076;25.626;2023-07-16T13:49:15;5.22;;;4.68;;
11604;SDS011;5858;43.076;25.626;2023-07-16T13:51:45;5.45;;;4.72;;
11604;SDS011;5858;43.076;25.626;2023-07-16T13:54:24;5.90;;;5.30;;
11604;SDS011;5858;43.076;25.626;2023-07-16T13:56:54;5.20;;;4.70;;
11604;SDS011;5858;43.076;25.626;2023-07-16T13:59:26;5.53;;;4.40;;
11604;SDS011;5858;43.076;25.626;2023-07-16T14:01:59;7.03;;;5.22;;
11604;SDS011;5858;43.076;25.626;2023-07-16T14:04:41;5.30;;;4.80;;
11604;SDS011;5858;43.076;25.626;2023-07-16T14:07:10;6.82;;;5.15;;
11604;SDS011;5858;43.076;25.626;2023-07-16T14:09:39;7.43;;;5.38;;
11604;SDS011;5858;43.076;25.626;2023-07-16T14:12:06;6.10;;;5.50;;
11604;SDS011;5858;43.076;25.626;2023-07-16T14:14:38;6.15;;;4.90;;
11604;SDS011;5858;43.076;25.626;2023-07-16T14:17:05;5.57;;;4.97;;
11604;SDS011;5858;43.076;25.626;2023-07-16T14:19:40;6.03;;;5.28;;
11604;SDS011;5858;43.076;25.626;2023-07-16T14:22:07;5.50;;;5.00;;
11604;SDS011;5858;43.076;25.626;2023-07-16T14:24:41;6.55;;;5.30;;
11604;SDS011;5858;43.076;25.626;2023-07-16T14:27:08;5.72;;;5.18;;
11604;SDS011;5858;43.076;25.626;2023-07-16T14:29:40;5.50;;;5.00;;
11604;SDS011;5858;43.076;25.626;2023-07-16T14:32:07;5.90;;;5.30;;
11604;SDS011;5858;43.076;25.626;2023-07-16T14:34:34;7.55;;;4.93;;
11604;SDS011;5858;43.076;25.626;2023-07-16T14:37:01;5.82;;;5.20;;
11604;SDS011;5858;43.076;25.626;2023-07-16T14:39:36;6.65;;;4.93;;
11604;SDS011;5858;43.076;25.626;2023-07-16T14:42:05;6.38;;;5.18;;
11604;SDS011;5858;43.076;25.626;2023-07-16T14:44:34;7.28;;;5.43;;
11604;SDS011;5858;43.076;25.626;2023-07-16T14:47:02;5.93;;;5.35;;
11604;SDS011;5858;43.076;25.626;2023-07-16T14:49:30;8.35;;;5.18;;
11604;SDS011;5858;43.076;25.626;2023-07-16T14:51:59;10.07;;;5.38;;
11604;SDS011;5858;43.076;25.626;2023-07-16T14:54:27;8.48;;;5.30;;
11604;SDS011;5858;43.076;25.626;2023-07-16T14:56:54;5.78;;;4.97;;
11604;SDS011;5858;43.076;25.626;2023-07-16T14:59:21;5.97;;;4.95;;
11604;SDS011;5858;43.076;25.626;2023-07-16T15:01:48;5.90;;;4.82;;
11604;SDS011;5858;43.076;25.626;2023-07-16T15:04:17;7.90;;;5.75;;
11604;SDS011;5858;43.076;25.626;2023-07-16T15:06:47;6.30;;;5.65;;
11604;SDS011;5858;43.076;25.626;2023-07-16T15:09:15;7.53;;;4.93;;
11604;SDS011;5858;43.076;25.626;2023-07-16T15:11:42;7.15;;;5.20;;
11604;SDS011;5858;43.076;25.626;2023-07-16T15:14:13;6.57;;;5.10;;
11604;SDS011;5858;43.076;25.626;2023-07-16T15:16:50;5.65;;;5.10;;
11604;SDS011;5858;43.076;25.626;2023-07-16T15:19:23;5.68;;;5.00;;
11604;SDS011;5858;43.076;25.626;2023-07-16T15:21:50;6.72;;;5.78;;
11604;SDS011;5858;43.076;25.626;2023-07-16T15:24:20;6.13;;;5.53;;
11604;SDS011;5858;43.076;25.626;2023-07-16T15:26:47;6.82;;;5.13;;
11604;SDS011;5858;43.076;25.626;2023-07-16T15:29:14;8.48;;;5.80;;
11604;SDS011;5858;43.076;25.626;2023-07-16T15:31:42;6.90;;;5.50;;
11604;SDS011;5858;43.076;25.626;2023-07-16T15:34:09;5.28;;;4.78;;
11604;SDS011;5858;43.076;25.626;2023-07-16T15:36:37;6.18;;;5.43;;
11604;SDS011;5858;43.076;25.626;2023-07-16T15:39:04;6.20;;;5.60;;
11604;SDS011;5858;43.076;25.626;2023-07-16T15:41:32;5.95;;;4.63;;
11604;SDS011;5858;43.076;25.626;2023-07-16T15:43:59;7.90;;;5.45;;
11604;SDS011;5858;43.076;25.626;2023-07-16T15:46:28;5.93;;;5.30;;
11604;SDS011;5858;43.076;25.626;2023-07-16T15:48:58;5.45;;;4.95;;
11604;SDS011;5858;43.076;25.626;2023-07-16T15:51:26;6.93;;;5.13;;
11604;SDS011;5858;43.076;25.626;2023-07-16T15:53:55;6.75;;;5.35;;
11604;SDS011;5858;43.076;25.626;2023-07-16T15:56:22;5.82;;;5.25;;
11604;SDS011;5858;43.076;25.626;2023-07-16T15:58:49;7.38;;;5.20;;
11604;SDS011;5858;43.076;25.626;2023-07-16T16:01:24;7.75;;;5.18;;
11604;SDS011;5858;43.076;25.626;2023-07-16T16:03:54;9.45;;;5.63;;
11604;SDS011;5858;43.076;25.626;2023-07-16T16:06:21;10.95;;;6.03;;
11604;SDS011;5858;43.076;25.626;2023-07-16T16:08:58;5.88;;;5.28;;
11604;SDS011;5858;43.076;25.626;2023-07-16T16:11:27;6.72;;;5.15;;
11604;SDS011;5858;43.076;25.626;2023-07-16T16:13:54;6.85;;;5.07;;
11604;SDS011;5858;43.076;25.626;2023-07-16T16:16:22;7.55;;;5.65;;
11604;SDS011;5858;43.076;25.626;2023-07-16T16:18:49;10.75;;;6.13;;
11604;SDS011;5858;43.076;25.626;2023-07-16T16:21:16;5.55;;;4.95;;
11604;SDS011;5858;43.076;25.626;2023-07-16T16:23:43;7.68;;;5.20;;
11604;SDS011;5858;43.076;25.626;2023-07-16T16:26:13;8.30;;;5.60;;
11604;SDS011;5858;43.076;25.626;2023-07-16T16:28:40;7.32;;;6.00;;
11604;SDS011;5858;43.076;25.626;2023-07-16T16:31:07;12.95;;;6.18;;
11604;SDS011;5858;43.076;25.626;2023-07-16T16:33:34;6.97;;;4.78;;
11604;SDS011;5858;43.076;25.626;2023-07-16T16:36:10;6.78;;;5.63;;
11604;SDS011;5858;43.076;25.626;2023-07-16T16:38:47;8.68;;;6.28;;
11604;SDS011;5858;43.076;25.626;2023-07-16T16:41:17;7.43;;;5.63;;
11604;SDS011;5858;43.076;25.626;2023-07-16T16:43:44;8.77;;;5.75;;
11604;SDS011;5858;43.076;25.626;2023-07-16T16:46:12;6.72;;;5.82;;
11604;SDS011;5858;43.076;25.626;2023-07-16T16:48:39;6.13;;;5.47;;
11604;SDS011;5858;43.076;25.626;2023-07-16T16:51:06;7.15;;;6.07;;